createdAt,value
2022-10-09T00:01:09.454Z,100063.50
2022-10-09T00:03:37.553Z,100064.38
2022-10-09T00:06:05.585Z,100050.56
2022-10-09T00:08:33.645Z,100044.56
2022-10-09T00:11:00.459Z,100052.09
2022-10-09T00:13:27.222Z,100053.38
2022-10-09T00:15:53.992Z,100040.56
2022-10-09T00:18:20.741Z,100037.28
2022-10-09T00:20:48.094Z,100039.97
2022-10-09T00:23:17.334Z,100031.97
2022-10-09T00:26:01.491Z,100028.84
2022-10-09T00:28:34.257Z,100025.06
2022-10-09T00:31:10.448Z,100010.25
2022-10-09T00:33:37.569Z,100013.53
2022-10-09T00:36:21.712Z,100011.06
2022-10-09T00:38:48.656Z,100000.03
2022-10-09T00:41:23.212Z,100002.13
2022-10-09T00:43:58.632Z,99989.69
2022-10-09T00:46:46.740Z,99991.88
2022-10-09T00:49:59.263Z,99986.50
2022-10-09T00:52:26.419Z,99980.91
2022-10-09T00:54:54.319Z,99977.41
2022-10-09T00:57:21.150Z,99957.63
2022-10-09T00:59:47.899Z,99957.75
2022-10-09T01:02:14.719Z,99957.75
2022-10-09T01:04:41.482Z,99948.69
2022-10-09T01:07:18.730Z,99945.63
2022-10-09T01:09:51.359Z,99934.66
2022-10-09T01:12:36.225Z,99933.13
2022-10-09T01:15:28.740Z,99917.72
2022-10-09T01:18:06.058Z,99915.25
2022-10-09T01:20:36.066Z,99911.75
2022-10-09T01:23:20.933Z,99914.22
2022-10-09T01:26:06.370Z,99914.00
2022-10-09T01:28:34.137Z,99913.19
2022-10-09T01:31:03.762Z,99907.06
2022-10-09T01:33:31.652Z,99912.19
2022-10-09T01:36:00.096Z,99909.63
2022-10-09T01:38:27.628Z,99905.22
2022-10-09T01:40:54.745Z,99893.44
2022-10-09T01:43:21.542Z,99902.31
2022-10-09T01:45:48.900Z,99900.72
2022-10-09T01:48:24.249Z,99901.09
2022-10-09T01:51:00.574Z,99900.44
2022-10-09T01:53:27.671Z,99887.16
2022-10-09T01:55:57.423Z,99889.25
2022-10-09T01:58:57.259Z,99883.78
2022-10-09T02:01:33.247Z,99875.84
2022-10-09T02:04:01.719Z,99877.19
2022-10-09T02:06:28.953Z,99872.13
2022-10-09T02:08:55.741Z,99865.94
2022-10-09T02:11:25.950Z,99849.56
2022-10-09T02:13:53.284Z,99847.19
2022-10-09T02:16:40.730Z,99840.41
2022-10-09T02:19:31.496Z,99841.00
2022-10-09T02:22:05.823Z,99844.50
2022-10-09T02:24:33.163Z,99838.16
2022-10-09T02:27:00.897Z,99837.00
2022-10-09T02:29:27.682Z,99833.00
2022-10-09T02:31:54.429Z,99816.69
2022-10-09T02:34:21.265Z,99811.56
2022-10-09T02:36:48.330Z,99810.59
2022-10-09T02:39:15.120Z,99818.28
2022-10-09T02:41:41.881Z,99807.34
2022-10-09T02:44:09.040Z,99809.88
2022-10-09T02:46:37.942Z,99801.75
2022-10-09T02:49:05.794Z,99798.34
2022-10-09T02:51:32.560Z,99795.75
2022-10-09T02:54:02.109Z,99784.94
2022-10-09T02:56:29.163Z,99780.03
2022-10-09T02:58:56.036Z,99789.50
2022-10-09T03:01:23.275Z,99792.84
2022-10-09T03:03:50.065Z,99784.44
2022-10-09T03:06:19.911Z,99771.84
2022-10-09T03:08:48.559Z,99770.69
2022-10-09T03:11:16.966Z,99772.56
2022-10-09T03:13:43.910Z,99771.03
2022-10-09T03:16:13.823Z,99775.94
2022-10-09T03:18:40.888Z,99772.69
2022-10-09T03:21:12.269Z,99757.88
2022-10-09T03:23:39.073Z,99765.34
2022-10-09T03:26:08.389Z,99765.63
2022-10-09T03:28:40.441Z,99764.47
2022-10-09T03:31:07.954Z,99763.91
2022-10-09T03:33:36.049Z,99761.63
2022-10-09T03:36:03.692Z,99752.66
2022-10-09T03:38:30.497Z,99749.16
2022-10-09T03:41:03.472Z,99746.47
2022-10-09T03:43:30.470Z,99751.03
2022-10-09T03:46:00.940Z,99737.75
2022-10-09T03:48:27.857Z,99731.94
2022-10-09T03:50:54.524Z,99727.72
2022-10-09T03:53:23.811Z,99718.41
2022-10-09T03:55:50.504Z,99699.75
2022-10-09T03:58:17.239Z,99698.44
2022-10-09T04:00:45.537Z,99701.13
2022-10-09T04:03:12.546Z,99672.44
2022-10-09T04:05:39.238Z,99679.31
2022-10-09T04:08:06.019Z,99668.94
2022-10-09T04:10:32.838Z,99665.19
2022-10-09T04:12:59.583Z,99664.25
2022-10-09T04:15:26.296Z,99660.06
2022-10-09T04:17:53.200Z,99671.72
2022-10-09T04:20:20.924Z,99670.53
2022-10-09T04:22:48.045Z,99681.63
2022-10-09T04:25:15.100Z,99684.31
2022-10-09T04:27:41.971Z,99694.66
2022-10-09T04:30:09.643Z,99691.38
2022-10-09T04:32:36.485Z,99679.00
2022-10-09T04:35:03.412Z,99675.72
2022-10-09T04:37:30.172Z,99668.94
2022-10-09T04:39:56.877Z,99668.94
2022-10-09T04:42:23.666Z,99665.78
2022-10-09T04:44:50.354Z,99667.88
2022-10-09T04:47:17.609Z,99678.63
2022-10-09T04:49:44.270Z,99658.75
2022-10-09T04:52:11.173Z,99661.09
2022-10-09T04:54:37.852Z,99663.31
2022-10-09T04:57:04.543Z,99659.94
2022-10-09T04:59:31.247Z,99665.44
2022-10-09T05:01:58.052Z,99653.78
2022-10-09T05:04:24.825Z,99642.56
2022-10-09T05:06:51.630Z,99641.25
2022-10-09T05:09:18.449Z,99630.34
2022-10-09T05:11:45.183Z,99624.03
2022-10-09T05:14:12.143Z,99633.84
2022-10-09T05:17:00.946Z,99638.66
2022-10-09T05:19:25.855Z,99634.03
2022-10-09T05:21:52.631Z,99635.56
2022-10-09T05:24:19.529Z,99629.13
2022-10-09T05:26:46.224Z,99638.59
2022-10-09T05:29:13.046Z,99625.03
2022-10-09T05:31:39.794Z,99624.81
2022-10-09T05:34:06.611Z,99620.72
2022-10-09T05:36:33.313Z,99615.81
2022-10-09T05:39:01.292Z,99609.88
2022-10-09T05:41:29.669Z,99612.91
2022-10-09T05:44:01.233Z,99604.69
2022-10-09T05:46:29.811Z,99595.97
2022-10-09T05:48:57.699Z,99595.97
2022-10-09T05:51:29.539Z,99591.25
2022-10-09T05:53:56.886Z,99593.94
2022-10-09T05:56:28.957Z,99597.91
2022-10-09T05:59:03.175Z,99580.44
2022-10-09T06:01:44.724Z,99583.66
2022-10-09T06:04:17.356Z,99580.63
2022-10-09T06:06:44.890Z,99565.94
2022-10-09T06:09:11.818Z,99572.22
2022-10-09T06:11:39.706Z,99565.22
2022-10-09T06:14:08.664Z,99559.00
2022-10-09T06:16:38.056Z,99559.00
2022-10-09T06:19:06.499Z,99555.53
2022-10-09T06:21:34.470Z,99559.81
2022-10-09T06:24:03.202Z,99539.28
2022-10-09T06:26:30.796Z,99532.53
2022-10-09T06:28:58.861Z,99539.25
2022-10-09T06:31:28.361Z,99532.00
2022-10-09T06:33:55.329Z,99528.84
2022-10-09T06:36:26.796Z,99525.53
2022-10-09T06:38:54.047Z,99517.34
2022-10-09T06:41:25.525Z,99507.41
2022-10-09T06:43:59.958Z,99509.91
2022-10-09T06:46:29.445Z,99500.00
2022-10-09T06:48:56.328Z,99496.56
2022-10-09T06:51:24.026Z,99492.00
2022-10-09T06:53:53.331Z,99488.75
2022-10-09T06:56:22.067Z,99483.88
2022-10-09T06:58:49.114Z,99491.19
2022-10-09T07:01:24.744Z,99490.38
2022-10-09T07:03:57.334Z,99483.00
2022-10-09T07:06:26.672Z,99483.88
2022-10-09T07:08:56.982Z,99489.00
2022-10-09T07:11:26.212Z,99487.22
2022-10-09T07:14:01.194Z,99478.16
2022-10-09T07:16:41.475Z,99490.22
2022-10-09T07:19:11.244Z,99490.84
2022-10-09T07:21:40.155Z,99471.22
2022-10-09T07:24:07.380Z,99468.53
2022-10-09T07:26:36.094Z,99466.75
2022-10-09T07:29:04.637Z,99447.97
2022-10-09T07:31:31.441Z,99445.75
2022-10-09T07:33:59.466Z,99420.59
2022-10-09T07:36:26.392Z,99437.53
2022-10-09T07:38:57.828Z,99405.69
2022-10-09T07:41:26.743Z,99409.28
2022-10-09T07:43:53.840Z,99404.72
2022-10-09T07:46:22.813Z,99404.63
2022-10-09T07:48:51.054Z,99399.59
2022-10-09T07:51:24.368Z,99396.00
2022-10-09T07:53:52.489Z,99388.84
2022-10-09T07:56:41.772Z,99382.06
2022-10-09T07:59:12.730Z,99391.28
2022-10-09T08:01:39.834Z,99388.03
2022-10-09T08:04:06.929Z,99385.81
2022-10-09T08:06:34.228Z,99373.34
2022-10-09T08:09:02.199Z,99377.91
2022-10-09T08:11:30.119Z,99384.94
2022-10-09T08:13:57.024Z,99383.06
2022-10-09T08:16:24.873Z,99392.03
2022-10-09T08:18:58.343Z,99379.72
2022-10-09T08:21:26.135Z,99380.53
2022-10-09T08:23:55.102Z,99368.44
2022-10-09T08:26:23.001Z,99380.44
2022-10-09T08:28:55.119Z,99381.69
2022-10-09T08:31:22.858Z,99394.38
2022-10-09T08:33:53.978Z,99389.66
2022-10-09T08:36:21.444Z,99376.56
2022-10-09T08:38:48.796Z,99372.00
2022-10-09T08:41:34.621Z,99367.69
2022-10-09T08:44:10.570Z,99380.13
2022-10-09T08:46:59.365Z,99365.59
2022-10-09T08:49:51.012Z,99362.44
2022-10-09T08:52:44.809Z,99362.44
2022-10-09T08:55:19.418Z,99375.94
2022-10-09T08:57:49.326Z,99373.78
2022-10-09T09:00:19.411Z,99370.38
2022-10-09T09:03:07.191Z,99372.47
2022-10-09T09:05:41.754Z,99367.19
2022-10-09T09:08:16.941Z,99361.28
2022-10-09T09:10:57.506Z,99365.13
2022-10-09T09:13:55.314Z,99354.66
2022-10-09T09:16:29.646Z,99363.53
2022-10-09T09:19:17.926Z,99363.81
2022-10-09T09:21:51.810Z,99358.44
2022-10-09T09:24:28.197Z,99347.16
2022-10-09T09:26:56.634Z,99350.94
2022-10-09T09:29:24.134Z,99359.63
2022-10-09T09:31:55.935Z,99356.41
2022-10-09T09:34:27.241Z,99338.91
2022-10-09T09:37:00.587Z,99338.09
2022-10-09T09:40:34.492Z,99338.66
2022-10-09T09:42:18.869Z,99336.78
2022-10-09T09:44:55.058Z,99335.91
2022-10-09T09:47:27.099Z,99335.41
2022-10-09T09:49:57.405Z,99327.13
2022-10-09T09:52:25.311Z,99326.50
2022-10-09T09:54:52.109Z,99317.88
2022-10-09T09:57:29.815Z,99315.72
2022-10-09T10:00:20.227Z,99298.66
2022-10-09T10:02:47.724Z,99307.13
2022-10-09T10:05:36.566Z,99300.31
2022-10-09T10:08:18.247Z,99298.13
2022-10-09T10:10:48.717Z,99290.56
2022-10-09T10:13:18.318Z,99287.25
2022-10-09T10:15:51.907Z,99296.94
2022-10-09T10:18:19.574Z,99286.88
2022-10-09T10:20:48.968Z,99280.69
2022-10-09T10:23:33.361Z,99273.50
2022-10-09T10:26:03.746Z,99263.56
2022-10-09T10:28:40.151Z,99262.66
2022-10-09T10:31:13.459Z,99250.19
2022-10-09T10:33:42.721Z,99251.38
2022-10-09T10:36:10.376Z,99246.53
2022-10-09T10:38:44.252Z,99243.31
2022-10-09T10:41:28.117Z,99240.59
2022-10-09T10:43:59.451Z,99234.69
2022-10-09T10:46:34.853Z,99212.09
2022-10-09T10:49:01.712Z,99217.50
2022-10-09T10:51:55.825Z,99210.50
2022-10-09T10:54:35.499Z,99196.50
2022-10-09T10:57:12.909Z,99194.38
2022-10-09T10:59:51.193Z,99194.88
2022-10-09T11:02:21.039Z,99189.28
2022-10-09T11:05:12.761Z,99169.88
2022-10-09T11:07:59.906Z,99158.31
2022-10-09T11:11:04.502Z,99145.91
2022-10-09T11:13:43.023Z,99142.69
2022-10-09T11:16:30.098Z,99138.94
2022-10-09T11:19:26.185Z,99133.00
2022-10-09T11:22:17.617Z,99138.38
2022-10-09T11:24:55.426Z,99139.22
2022-10-09T11:27:27.237Z,99121.69
2022-10-09T11:30:02.797Z,99135.16
2022-10-09T11:32:36.822Z,99148.34
2022-10-09T11:35:12.303Z,99150.53
2022-10-09T11:37:41.161Z,99135.69
2022-10-09T11:40:20.452Z,99138.13
2022-10-09T11:42:59.343Z,99128.72
2022-10-09T11:45:33.111Z,99127.06
2022-10-09T11:48:18.163Z,99131.13
2022-10-09T11:50:53.947Z,99128.16
2022-10-09T11:53:25.454Z,99110.59
2022-10-09T11:56:22.792Z,99095.53
2022-10-09T11:59:00.483Z,99108.19
2022-10-09T12:01:35.995Z,99107.13
2022-10-09T12:04:32.280Z,99102.50
2022-10-09T12:07:09.582Z,99096.59
2022-10-09T12:09:40.786Z,99100.91
2022-10-09T12:12:27.936Z,99080.97
2022-10-09T12:14:55.142Z,99081.22
2022-10-09T12:17:21.903Z,99058.34
2022-10-09T12:20:07.938Z,99069.09
2022-10-09T12:22:41.421Z,99048.09
2022-10-09T12:25:26.394Z,99028.69
2022-10-09T12:27:55.008Z,99018.97
2022-10-09T12:30:25.075Z,99012.78
2022-10-09T12:33:26.006Z,99012.00
2022-10-09T12:36:15.414Z,99015.75
2022-10-09T12:38:42.727Z,99013.59
2022-10-09T12:41:22.137Z,99015.75
2022-10-09T12:43:51.818Z,99021.44
2022-10-09T12:46:38.485Z,99023.28
2022-10-09T12:49:14.620Z,99021.66
2022-10-09T12:51:41.380Z,99029.50
2022-10-09T12:54:10.079Z,99040.81
2022-10-09T12:56:38.583Z,99032.75
2022-10-09T12:59:06.538Z,99043.78
2022-10-09T13:01:34.597Z,99037.84
2022-10-09T13:04:04.319Z,99037.31
2022-10-09T13:06:42.243Z,99030.03
2022-10-09T13:09:20.582Z,99034.63
2022-10-09T13:12:01.823Z,99027.34
2022-10-09T13:14:45.028Z,99035.97
2022-10-09T13:17:28.793Z,99018.44
2022-10-09T13:19:58.545Z,99011.44
2022-10-09T13:22:29.102Z,99000.94
2022-10-09T13:24:58.803Z,98983.69
2022-10-09T13:27:34.970Z,98981.00
2022-10-09T13:30:01.848Z,98982.34
2022-10-09T13:32:28.615Z,98985.84
2022-10-09T13:34:55.623Z,98995.28
2022-10-09T13:37:24.725Z,98983.16
2022-10-09T13:39:56.544Z,98967.00
2022-10-09T13:42:26.950Z,98960.78
2022-10-09T13:44:53.855Z,98961.34
2022-10-09T13:47:24.444Z,98951.91
2022-10-09T13:49:51.612Z,98947.34
2022-10-09T13:52:18.353Z,98955.69
2022-10-09T13:54:45.210Z,98943.00
2022-10-09T13:57:12.074Z,98938.97
2022-10-09T13:59:38.850Z,98928.19
2022-10-09T14:02:05.550Z,98934.13
2022-10-09T14:04:32.343Z,98921.47
2022-10-09T14:06:59.064Z,98920.09
2022-10-09T14:09:25.894Z,98924.97
2022-10-09T14:11:52.662Z,98923.34
2022-10-09T14:14:19.596Z,98923.63
2022-10-09T14:16:46.388Z,98910.16
2022-10-09T14:19:13.199Z,98911.50
2022-10-09T14:21:40.320Z,98905.31
2022-10-09T14:24:07.271Z,98923.91
2022-10-09T14:26:35.439Z,98922.25
2022-10-09T14:29:03.337Z,98902.84
2022-10-09T14:31:30.461Z,98911.75
2022-10-09T14:33:58.944Z,98896.09
2022-10-09T14:36:25.983Z,98895.28
2022-10-09T14:38:53.167Z,98887.50
2022-10-09T14:41:20.298Z,98885.06
2022-10-09T14:43:48.719Z,98883.44
2022-10-09T14:46:17.633Z,98889.63
2022-10-09T14:48:45.528Z,98885.91
2022-10-09T14:51:14.916Z,98890.44
2022-10-09T14:53:41.743Z,98876.16
2022-10-09T14:56:11.779Z,98884.28
2022-10-09T14:58:39.734Z,98876.97
2022-10-09T15:01:07.193Z,98866.47
2022-10-09T15:03:35.868Z,98870.25
2022-10-09T15:06:05.235Z,98868.91
2022-10-09T15:08:34.177Z,98865.69
2022-10-09T15:11:01.375Z,98871.34
2022-10-09T15:13:28.792Z,98877.56
2022-10-09T15:16:03.677Z,98859.25
2022-10-09T15:18:30.617Z,98853.31
2022-10-09T15:21:00.151Z,98845.25
2022-10-09T15:23:29.191Z,98849.81
2022-10-09T15:25:57.609Z,98848.47
2022-10-09T15:28:25.150Z,98834.22
2022-10-09T15:30:55.097Z,98818.81
2022-10-09T15:33:22.476Z,98825.84
2022-10-09T15:35:50.544Z,98845.25
2022-10-09T15:38:18.886Z,98817.75
2022-10-09T15:40:48.308Z,98814.50
2022-10-09T15:43:17.851Z,98808.03
2022-10-09T15:45:44.922Z,98793.78
2022-10-09T15:48:19.797Z,98786.28
2022-10-09T15:50:50.444Z,98780.34
2022-10-09T15:53:18.849Z,98777.09
2022-10-09T15:55:47.608Z,98772.25
2022-10-09T15:58:15.026Z,98774.13
2022-10-09T16:00:47.475Z,98767.66
2022-10-09T16:03:15.155Z,98759.09
2022-10-09T16:05:44.371Z,98756.34
2022-10-09T16:08:12.438Z,98750.16
2022-10-09T16:10:49.039Z,98752.81
2022-10-09T16:13:16.512Z,98745.56
2022-10-09T16:15:44.645Z,98723.72
2022-10-09T16:18:11.816Z,98721.06
2022-10-09T16:20:39.583Z,98708.41
2022-10-09T16:23:07.900Z,98712.50
2022-10-09T16:25:35.724Z,98708.72
2022-10-09T16:28:03.409Z,98717.31
2022-10-09T16:30:30.638Z,98691.75
2022-10-09T16:32:57.373Z,98691.75
2022-10-09T16:35:24.251Z,98689.09
2022-10-09T16:37:54.571Z,98680.47
2022-10-09T16:40:32.597Z,98678.88
2022-10-09T16:43:08.400Z,98686.44
2022-10-09T16:45:35.401Z,98672.69
2022-10-09T16:48:02.330Z,98681.06
2022-10-09T16:50:29.136Z,98679.19
2022-10-09T16:52:55.981Z,98684.28
2022-10-09T16:55:22.752Z,98679.72
2022-10-09T16:57:49.809Z,98673.50
2022-10-09T17:00:19.312Z,98683.22
2022-10-09T17:02:46.321Z,98694.81
2022-10-09T17:05:13.484Z,98689.44
2022-10-09T17:07:40.312Z,98700.47
2022-10-09T17:10:07.454Z,98710.72
2022-10-09T17:12:34.369Z,98713.66
2022-10-09T17:15:01.217Z,98708.50
2022-10-09T17:17:28.214Z,98697.78
2022-10-09T17:19:55.400Z,98706.63
2022-10-09T17:22:22.241Z,98699.38
2022-10-09T17:24:49.331Z,98689.13
2022-10-09T17:27:16.175Z,98690.75
2022-10-09T17:29:43.131Z,98694.53
2022-10-09T17:32:09.895Z,98697.22
2022-10-09T17:34:36.658Z,98696.97
2022-10-09T17:37:03.599Z,98703.38
2022-10-09T17:39:30.448Z,98697.75
2022-10-09T17:41:57.571Z,98698.00
2022-10-09T17:47:12.617Z,98680.78
2022-10-09T17:49:39.280Z,98684.56
2022-10-09T17:52:06.080Z,98676.19
2022-10-09T17:54:32.869Z,98671.66
2022-10-09T17:57:01.305Z,98660.63
2022-10-09T17:59:28.127Z,98674.09
2022-10-09T18:01:54.907Z,98668.41
2022-10-09T18:04:21.746Z,98665.72
2022-10-09T18:06:48.686Z,98664.63
2022-10-09T18:09:15.408Z,98657.63
2022-10-09T18:11:42.810Z,98661.94
2022-10-09T18:14:09.903Z,98655.72
2022-10-09T18:16:38.113Z,98670.00
2022-10-09T18:19:06.984Z,98656.25
2022-10-09T18:21:34.517Z,98650.06
2022-10-09T18:24:01.230Z,98658.16
2022-10-09T18:26:28.049Z,98651.94
2022-10-09T18:28:54.783Z,98643.59
2022-10-09T18:31:23.677Z,98646.53
2022-10-09T18:33:50.953Z,98644.91
2022-10-09T18:36:20.972Z,98635.19
2022-10-09T18:38:53.536Z,98630.91
2022-10-09T18:41:22.099Z,98630.63
2022-10-09T18:43:49.234Z,98626.03
2022-10-09T18:46:18.217Z,98628.44
2022-10-09T18:48:45.497Z,98615.53
2022-10-09T18:51:16.577Z,98613.94
2022-10-09T18:53:43.969Z,98611.81
2022-10-09T18:56:11.252Z,98610.44
2022-10-09T18:58:39.342Z,98624.72
2022-10-09T19:01:07.602Z,98619.03
2022-10-09T19:03:36.691Z,98616.94
2022-10-09T19:06:04.452Z,98611.81
2022-10-09T19:08:31.154Z,98622.81
2022-10-09T19:10:57.958Z,98617.16
2022-10-09T19:13:25.176Z,98624.94
2022-10-09T19:15:58.702Z,98618.75
2022-10-09T19:18:26.916Z,98606.09
2022-10-09T19:20:53.726Z,98616.34
2022-10-09T19:23:20.541Z,98616.88
2022-10-09T19:25:56.510Z,98611.78
2022-10-09T19:28:25.324Z,98619.31
2022-10-09T19:30:52.295Z,98616.34
2022-10-09T19:33:19.167Z,98604.22
2022-10-09T19:35:51.447Z,98598.28
2022-10-09T19:38:19.452Z,98597.78
2022-10-09T19:40:46.498Z,98599.59
2022-10-09T19:43:13.983Z,98593.41
2022-10-09T19:45:41.341Z,98599.59
2022-10-09T19:48:08.619Z,98590.47
2022-10-09T19:50:41.492Z,98598.00
2022-10-09T19:53:08.320Z,98622.53
2022-10-09T19:55:35.662Z,98659.22
2022-10-09T19:58:02.490Z,98665.47
2022-10-09T20:00:29.932Z,98662.81
2022-10-09T20:02:56.661Z,98667.47
2022-10-09T20:05:23.404Z,98683.56
2022-10-09T20:07:50.365Z,98692.41
2022-10-09T20:10:17.362Z,98679.19
2022-10-09T20:12:44.130Z,98700.94
2022-10-09T20:15:11.160Z,98692.00
2022-10-09T20:17:37.887Z,98697.03
2022-10-09T20:20:05.823Z,98688.19
2022-10-09T20:22:32.563Z,98700.03
2022-10-09T20:24:59.381Z,98705.94
2022-10-09T20:27:26.099Z,98717.75
2022-10-09T20:29:53.732Z,98727.50
2022-10-09T20:32:20.625Z,98730.97
2022-10-09T20:34:47.434Z,98727.56
2022-10-09T20:37:14.172Z,98738.78
2022-10-09T20:39:40.888Z,98740.31
2022-10-09T20:42:07.814Z,98753.16
2022-10-09T20:44:34.589Z,98742.72
2022-10-09T20:47:01.926Z,98741.53
2022-10-09T20:49:28.690Z,98742.59
2022-10-09T20:51:56.814Z,98751.16
2022-10-09T20:54:23.754Z,98735.50
2022-10-09T20:56:50.854Z,98734.50
2022-10-09T20:59:18.229Z,98738.34
2022-10-09T21:01:45.524Z,98737.84
2022-10-09T21:04:12.508Z,98736.72
2022-10-09T21:06:39.519Z,98748.44
2022-10-09T21:09:06.627Z,98767.03
2022-10-09T21:11:34.804Z,98766.84
2022-10-09T21:14:02.538Z,98767.34
2022-10-09T21:16:29.651Z,98776.75
2022-10-09T21:18:59.060Z,98768.19
2022-10-09T21:21:27.347Z,98767.25
2022-10-09T21:23:56.043Z,98772.06
2022-10-09T21:26:23.550Z,98767.41
2022-10-09T21:28:53.334Z,98770.72
2022-10-09T21:31:26.271Z,98777.31
2022-10-09T21:33:53.044Z,98769.16
2022-10-09T21:36:34.865Z,98780.91
2022-10-09T21:39:02.001Z,98781.13
2022-10-09T21:41:28.720Z,98784.44
2022-10-09T21:43:55.526Z,98777.25
2022-10-09T21:46:22.814Z,98788.97
2022-10-09T21:48:49.663Z,98787.81
2022-10-09T21:51:16.388Z,98793.31
2022-10-09T21:53:43.285Z,98789.84
2022-10-09T21:56:10.002Z,98797.59
2022-10-09T21:58:38.144Z,98798.84
2022-10-09T22:01:05.599Z,98792.72
2022-10-09T22:03:34.942Z,98807.25
2022-10-09T22:06:05.956Z,98809.66
2022-10-09T22:08:32.589Z,98809.44
2022-10-09T22:10:59.328Z,98810.09
2022-10-09T22:13:26.208Z,98799.13
2022-10-09T22:15:52.888Z,98795.50
2022-10-09T22:18:19.790Z,98798.94
2022-10-09T22:21:13.186Z,98800.19
2022-10-09T22:23:40.262Z,98798.38
2022-10-09T22:26:10.283Z,98799.47
2022-10-09T22:28:37.273Z,98802.47
2022-10-09T22:31:24.618Z,98802.59
2022-10-09T22:33:53.280Z,98810.66
2022-10-09T22:36:22.007Z,98812.91
2022-10-09T22:38:48.810Z,98816.91
2022-10-09T22:41:18.040Z,98827.31
2022-10-09T22:43:46.725Z,98831.38
2022-10-09T22:46:26.175Z,98842.81
2022-10-09T22:48:53.406Z,98849.00
2022-10-09T22:51:21.970Z,98839.09
2022-10-09T22:53:48.776Z,98838.28
2022-10-09T22:56:24.176Z,98837.53
2022-10-09T22:58:53.125Z,98840.59
2022-10-09T23:01:31.392Z,98842.81
2022-10-09T23:03:59.230Z,98849.34
2022-10-09T23:06:25.980Z,98843.78
2022-10-09T23:08:52.819Z,98852.28
2022-10-09T23:11:20.721Z,98863.47
2022-10-09T23:13:48.240Z,98859.75
2022-10-09T23:16:15.579Z,98863.56
2022-10-09T23:18:43.112Z,98874.97
2022-10-09T23:21:13.525Z,98880.81
2022-10-09T23:23:40.733Z,98872.41
2022-10-09T23:26:08.993Z,98880.00
2022-10-09T23:28:36.291Z,98876.41
2022-10-09T23:31:08.499Z,98877.94
2022-10-09T23:33:35.830Z,98880.78
2022-10-09T23:36:03.291Z,98892.16
2022-10-09T23:38:30.486Z,98894.44
2022-10-09T23:40:58.355Z,98889.06
2022-10-09T23:43:25.885Z,98905.28
2022-10-09T23:45:55.141Z,98906.06
2022-10-09T23:48:22.262Z,98902.03
2022-10-09T23:50:49.799Z,98904.34
2022-10-09T23:53:16.693Z,98913.09
2022-10-09T23:55:44.038Z,98916.25
2022-10-09T23:58:11.725Z,98921.44
